Terminal Aerodrome Forecast
Issued by NWS

Home | Current Version | Previous Version | Text Only | Print | Product List | Glossary On
Versions: 1 2 3 4 5 6 7 8 9 10 11 12 13 14
000
FTUS45 KCYS 282320
TAFLAR
TAF
KLAR 282320Z 2900/2924 28015G25KT P6SM VCTS BKN100CB
     FM290100 20007KT P6SM SCT070
     FM290500 VRB04KT P6SM VCFG SCT003
     FM291200 26006KT P6SM SKC
     FM292000 28010KT P6SM VCTS BKN100CB=

USA.gov is the U.S. government's official web portal to all federal, state and local government web resources and services.